Flight Track Log - Related Links

Times and Time Zones

All times are in EDT time to prevent confusion due to time zone crossing. See the UAL4093 flight status page for this flight to view local times or setup timezone preferences in your user account.

Time Position Orientation Groundspeed Altitude Reporting Facility
EDT Latitude Longitude Course Direction KTS MPH feet Rate Location/Type
Mon 10:17:00 PM 30.0223 -95.7002 277° West  Level FlightAware
Mon 10:18:00 PM 30.0353 -95.8230 276° West  Level FlightAware
Mon 10:19:00 PM 30.0455 -95.9462 276° West  Level FlightAware
Mon 10:20:00 PM 30.0681 -96.0660 276° West  Level FlightAware
Mon 10:21:00 PM 30.0793 -96.1891 276° West  Level FlightAware
Mon 10:22:00 PM 30.1005 -96.3038 279° West  Level FlightAware
Mon 10:23:00 PM 30.1180 -96.4260 279° West  Level FlightAware
Mon 10:24:00 PM 30.1356 -96.5482 280° West  Level FlightAware
Mon 10:25:00 PM 30.1544 -96.6701 280° West  Level FlightAware
Mon 10:26:00 PM 30.1750 -96.7917 283° West  Level FlightAware
Mon 10:27:00 PM 30.1992 -96.9124 283° West  Level FlightAware
Mon 10:28:00 PM 30.2061 -97.0349 291° West  Level FlightAware
Mon 10:29:00 PM 30.2303 -97.1552 280° West  Level FlightAware
Mon 10:30:00 PM 30.2491 -97.2773 280° West  Level FlightAware
Mon 10:31:00 PM 30.2681 -97.3993 276° West  Level FlightAware
Mon 10:32:00 PM 30.2794 -97.5226 276° West  Level FlightAware
Mon 10:33:00 PM 30.2958 -97.6451 280° West  Level FlightAware
Mon 10:34:00 PM 30.3151 -97.7671 280° West  Level FlightAware
Mon 10:35:00 PM 30.3341 -97.8893 278° West  Level FlightAware
Mon 10:36:00 PM 30.3494 -98.0121 278° West  Level FlightAware
Mon 10:37:00 PM 30.3648 -98.1350 278° West  Level FlightAware
Mon 10:38:00 PM 30.3861 -98.2566 282° West  Level FlightAware
Mon 10:39:00 PM 30.4061 -98.3786 279° West  Level FlightAware
Mon 10:40:00 PM 30.4226 -98.5013 279° West  Level FlightAware
Mon 10:41:00 PM 30.4390 -98.6241 279° West  Level FlightAware
Mon 10:42:00 PM 30.4552 -98.7469 279° West  Level FlightAware
Mon 10:43:00 PM 30.4714 -98.8697 279° West  Level FlightAware
Mon 10:44:00 PM 30.4874 -98.9926 279° West  Level FlightAware
Mon 10:45:00 PM 30.5033 -99.1156 279° West  Level FlightAware
Mon 10:46:00 PM 30.5191 -99.2385 279° West  Level FlightAware
Mon 10:47:00 PM 30.5346 -99.3616 277° West  Level FlightAware
Mon 10:48:00 PM 30.5480 -99.4850 277° West  Level FlightAware
Mon 10:49:00 PM 30.5612 -99.6084 277° West  Level FlightAware
Mon 10:50:00 PM 30.5744 -99.7319 277° West  Level FlightAware
Mon 10:51:00 PM 30.5974 -99.8521 295° West  Level FlightAware
Mon 10:52:00 PM 30.6423 -99.9651 295° West  Level FlightAware
Mon 10:53:00 PM 30.6871 -100.0782 295° West  Level FlightAware
Mon 10:54:00 PM 30.7318 -100.1914 295° West  Level FlightAware
Mon 10:55:00 PM 30.7765 -100.3048 295° West  Level FlightAware
Mon 10:56:00 PM 30.8210 -100.4182 295° West  Level FlightAware
Mon 10:57:00 PM 30.8654 -100.5317 295° West  Level FlightAware
Mon 10:58:00 PM 30.9097 -100.6454 294° West  Level FlightAware
Mon 10:59:00 PM 30.9539 -100.7591 294° West  Level FlightAware
Mon 11:00:00 PM 30.9980 -100.8730 294° West  Level FlightAware
Mon 11:01:00 PM 31.0420 -100.9869 294° West  Level FlightAware
Mon 11:02:00 PM 31.0859 -101.1010 294° West  Level FlightAware
Mon 11:03:00 PM 31.1297 -101.2152 294° West  Level FlightAware
Mon 11:04:00 PM 31.1735 -101.3294 294° West  Level FlightAware
Mon 11:05:00 PM 31.2171 -101.4438 294° West  Level FlightAware
Mon 11:06:00 PM 31.2606 -101.5583 294° West  Level FlightAware
Mon 11:07:00 PM 31.3040 -101.6729 294° West  Level FlightAware
Mon 11:08:00 PM 31.3473 -101.7876 294° West  Level FlightAware
Mon 11:09:00 PM 31.3905 -101.9024 294° West  Level FlightAware
Mon 11:10:00 PM 31.4336 -102.0173 293° West  Level FlightAware
Mon 11:11:00 PM 31.4754 -102.1329 293° West  Level FlightAware
Mon 11:12:00 PM 31.5171 -102.2486 293° West  Level FlightAware
Mon 11:13:00 PM 31.5588 -102.3644 293° West  Level FlightAware
Mon 11:14:00 PM 31.6003 -102.4803 293° West  Level FlightAware
Mon 11:15:00 PM 31.6417 -102.5963 293° West  Level FlightAware
Mon 11:16:00 PM 31.6830 -102.7124 293° West  Level FlightAware
Mon 11:17:00 PM 31.7243 -102.8286 293° West  Level FlightAware
Mon 11:18:00 PM 31.7654 -102.9449 293° West  Level FlightAware
Mon 11:19:00 PM 31.8064 -103.0613 293° West  Level FlightAware
Mon 11:20:00 PM 31.8472 -103.1779 292° West  Level FlightAware
Mon 11:21:00 PM 31.9109 -103.2741 322° Northwest  Level FlightAware
Mon 11:22:00 PM 31.9953 -103.3519 322° Northwest  Level FlightAware
Mon 11:23:00 PM 32.0795 -103.4299 322° Northwest  Level FlightAware
Mon 11:24:00 PM 32.1638 -103.5080 322° Northwest  Level FlightAware
Mon 11:25:00 PM 32.2480 -103.5863 322° Northwest  Level FlightAware
Mon 11:26:00 PM 32.3321 -103.6647 322° Northwest  Level FlightAware
Mon 11:27:00 PM 32.4162 -103.7433 322° Northwest  Level FlightAware
Mon 11:28:00 PM 32.5003 -103.8220 322° Northwest  Level FlightAware
Mon 11:29:00 PM 32.5842 -103.9009 321° Northwest  Level FlightAware
Mon 11:30:00 PM 32.6680 -103.9801 321° Northwest  Level FlightAware
Mon 11:31:00 PM 32.7517 -104.0595 321° Northwest  Level FlightAware
Mon 11:32:00 PM 32.8354 -104.1391 321° Northwest  Level FlightAware
Mon 11:33:00 PM 32.9190 -104.2188 321° Northwest  Level FlightAware
Mon 11:34:00 PM 33.0026 -104.2987 321° Northwest  Level FlightAware
Mon 11:35:00 PM 33.0861 -104.3787 321° Northwest  Level FlightAware
Mon 11:36:00 PM 33.1696 -104.4588 321° Northwest  Level FlightAware
Mon 11:37:00 PM 33.2530 -104.5391 321° Northwest  Level FlightAware
Mon 11:38:00 PM 33.3363 -104.6198 318° Northwest  Level FlightAware
Mon 11:39:00 PM 33.4160 -104.7055 318° Northwest  Level FlightAware
Mon 11:40:00 PM 33.4956 -104.7913 318° Northwest  Level FlightAware
Mon 11:41:00 PM 33.5771 -104.8746 323° Northwest  Level FlightAware
Mon 11:42:00 PM 33.6626 -104.9522 323° Northwest  Level FlightAware
Mon 11:43:00 PM 33.7460 -105.0325 314° West  Level FlightAware
Mon 11:44:00 PM 33.8226 -105.1225 320° Northwest  Level FlightAware
Mon 11:45:00 PM 33.9050 -105.2048 320° Northwest  Level FlightAware
Mon 11:46:00 PM 33.9874 -105.2873 320° Northwest  Level FlightAware
Mon 11:47:00 PM 34.0699 -105.3698 320° Northwest  Level FlightAware
Mon 11:48:00 PM 34.1524 -105.4523 320° Northwest  Level FlightAware
Mon 11:49:00 PM 34.2350 -105.5348 320° Northwest  Level FlightAware
Mon 11:50:00 PM 34.3175 -105.6175 320° Northwest  Level FlightAware
Mon 11:51:00 PM 34.4001 -105.7001 320° Northwest  Level FlightAware
Mon 11:52:00 PM 34.4895 -105.7712 328° Northwest  Level FlightAware
Mon 11:53:00 PM 34.5807 -105.8395 328° Northwest  Level FlightAware
Mon 11:54:00 PM 34.6718 -105.9080 328° Northwest  Level FlightAware
Mon 11:55:00 PM 34.7624 -105.9774 328° Northwest  Level FlightAware
Mon 11:56:00 PM 34.8530 -106.0471 328° Northwest  Level FlightAware
Mon 11:57:00 PM 34.9497 -106.0999 345° North  Level FlightAware
Mon 11:58:00 PM 34.9684 -106.2283 280° West  Level FlightAware
Mon 11:59:00 PM 34.9854 -106.3574 276° West  Level FlightAware
Tue 12:00:00 AM 34.9962 -106.4874 276° West  Level FlightAware
Tue 12:01:00 AM 35.0112 -106.6169 279° West  Level FlightAware
Tue 12:02:00 AM 35.0402 -106.6092 279° West  Level Estimated
Tue 12:03:00 AM 35.0402 -106.6092 90° East  Level Estimated
Tue 12:04:00 AM 35.0402 -106.6092 90° East  Level Estimated

Login

Don't have an account? Register now (free) for customized features, flight alerts, and more!